Time;durP1;ratioP1;P1;durP2;ratioP2;P2;SDS_P1;SDS_P2;PMS_P1;PMS_P2;Temp;Humidity;BMP_temperature;BMP_pressure;BME280_temperature;BME280_humidity;BME280_pressure;Samples;Min_cycle;Max_cycle;Signal;HPM_P1;HPM_P2
2023/04/04 00:04:54;;;;;;;0.00;0.00;;;;;;;2.33;100.00;103025.47;10504940;28;20105;-83
2023/04/04 00:09:56;;;;;;;0.00;0.00;;;;;;;2.26;100.00;103026.53;10527587;28;20105;-82
2023/04/04 00:14:58;;;;;;;0.00;0.00;;;;;;;2.26;100.00;103025.66;10555327;27;20112;-82
2023/04/04 00:20:00;;;;;;;0.00;0.00;;;;;;;2.10;100.00;103003.84;10493661;28;20085;-82
2023/04/04 00:25:03;;;;;;;0.10;0.10;;;;;;;2.06;100.00;103011.94;10535083;28;20055;-82
2023/04/04 00:30:08;;;;;;;0.05;0.05;;;;;;;2.13;100.00;103008.31;10534321;28;20036;-82
2023/04/04 00:35:11;;;;;;;0.30;0.10;;;;;;;2.57;100.00;103013.25;10535031;28;20143;-82
2023/04/04 00:40:13;;;;;;;0.10;0.10;;;;;;;2.41;100.00;103009.28;10521100;28;20040;-82
2023/04/04 00:45:15;;;;;;;0.08;0.08;;;;;;;2.34;100.00;103015.44;10521055;28;20050;-83
2023/04/04 00:50:17;;;;;;;0.25;0.10;;;;;;;2.25;100.00;103000.97;10521632;28;20040;-82
2023/04/04 00:55:18;;;;;;;0.00;0.00;;;;;;;1.98;100.00;103002.66;10537582;28;20052;-82
2023/04/04 01:00:20;;;;;;;0.00;0.00;;;;;;;1.72;100.00;102998.56;10520352;28;20526;-82
2023/04/04 01:05:23;;;;;;;0.00;0.00;;;;;;;1.80;100.00;103000.19;10525738;28;20051;-82
2023/04/04 01:10:25;;;;;;;0.00;0.00;;;;;;;1.44;100.00;103001.00;10533036;28;20040;-82
2023/04/04 01:15:27;;;;;;;0.10;0.10;;;;;;;1.64;100.00;102990.19;10528892;28;20055;-82
2023/04/04 01:20:32;;;;;;;0.22;0.22;;;;;;;1.47;100.00;102990.22;10532399;28;20074;-82
2023/04/04 01:25:34;;;;;;;0.00;0.00;;;;;;;1.58;100.00;102974.38;10562718;28;20067;-82
2023/04/04 01:30:45;;;;;;;;;;;;;;;1.17;100.00;102972.16;10544501;28;20044;-82
2023/04/04 01:36:05;;;;;;;0.05;0.05;;;;;;;1.07;100.00;102967.84;10552008;28;19923;-82
2023/04/04 01:41:08;;;;;;;0.00;0.00;;;;;;;1.19;100.00;102952.03;10532029;28;20048;-81
2023/04/04 01:46:18;;;;;;;0.00;0.00;;;;;;;1.21;100.00;102959.03;10516184;28;20048;-82
2023/04/04 01:51:22;;;;;;;0.10;0.10;;;;;;;1.18;100.00;102961.25;10546197;28;20040;-82
2023/04/04 01:56:26;;;;;;;0.00;0.00;;;;;;;1.71;100.00;102977.31;10526062;28;20445;-82
2023/04/04 02:01:28;;;;;;;0.03;0.03;;;;;;;1.60;100.00;102987.25;10525241;28;20085;-82
2023/04/04 02:06:29;;;;;;;0.00;0.00;;;;;;;0.94;100.00;102975.00;10528145;28;20052;-82
2023/04/04 02:11:35;;;;;;;0.52;0.52;;;;;;;0.73;100.00;102963.63;10530170;28;20056;-82
2023/04/04 02:16:38;;;;;;;0.63;0.55;;;;;;;0.86;100.00;102970.81;10532683;28;20055;-82
2023/04/04 02:21:39;;;;;;;0.45;0.35;;;;;;;1.01;100.00;102968.84;10531607;28;20078;-82
2023/04/04 02:26:41;;;;;;;0.00;0.00;;;;;;;0.77;100.00;102980.97;10535283;28;20071;-82
2023/04/04 02:31:43;;;;;;;0.20;0.20;;;;;;;0.97;100.00;102971.84;10541848;28;20044;-82
2023/04/04 02:36:44;;;;;;;0.00;0.00;;;;;;;1.12;100.00;102985.19;10552286;28;20067;-81
2023/04/04 02:41:46;;;;;;;0.75;0.30;;;;;;;1.25;100.00;102986.50;10546038;28;20069;-82
2023/04/04 02:46:49;;;;;;;0.20;0.20;;;;;;;1.14;100.00;102984.56;10576705;28;20518;-82
2023/04/04 02:51:51;;;;;;;0.20;0.20;;;;;;;0.99;100.00;102978.00;10556566;28;20093;-81
2023/04/04 02:56:53;;;;;;;0.20;0.20;;;;;;;0.69;100.00;102951.38;10543259;28;20107;-81
2023/04/04 03:01:55;;;;;;;0.20;0.20;;;;;;;0.55;100.00;102939.84;10561363;28;20040;-81
2023/04/04 03:06:57;;;;;;;0.00;0.00;;;;;;;0.43;100.00;102924.31;10544508;28;20051;-81
2023/04/04 03:12:00;;;;;;;1.15;0.47;;;;;;;0.28;100.00;102911.91;10567818;28;20480;-81
2023/04/04 03:17:02;;;;;;;0.32;0.32;;;;;;;0.21;100.00;102904.41;10528061;28;20074;-81
2023/04/04 03:22:03;;;;;;;0.57;0.32;;;;;;;0.53;100.00;102916.88;10546290;28;20058;-80
2023/04/04 03:27:07;;;;;;;0.00;0.00;;;;;;;0.94;100.00;102935.28;10552006;28;20055;-81
2023/04/04 03:32:09;;;;;;;0.03;0.03;;;;;;;0.56;100.00;102937.47;10543945;28;20055;-81
2023/04/04 03:37:11;;;;;;;0.00;0.00;;;;;;;0.04;100.00;102925.53;10568097;28;20040;-80
2023/04/04 03:42:13;;;;;;;0.10;0.10;;;;;;;-0.03;100.00;102913.88;10547724;28;20047;-81
2023/04/04 03:47:15;;;;;;;0.30;0.30;;;;;;;-0.14;100.00;102893.25;10585586;28;20040;-81
2023/04/04 03:52:19;;;;;;;0.10;0.10;;;;;;;0.41;100.00;102897.94;10567140;28;20051;-81
2023/04/04 03:57:21;;;;;;;0.00;0.00;;;;;;;-0.17;100.00;102901.44;10510248;28;20423;-81
2023/04/04 04:02:23;;;;;;;0.00;0.00;;;;;;;-0.67;100.00;102904.03;10541627;28;20052;-81
2023/04/04 04:07:25;;;;;;;0.20;0.20;;;;;;;-0.80;100.00;102895.91;10522227;28;20040;-81
2023/04/04 04:12:26;;;;;;;0.20;0.20;;;;;;;-0.60;100.00;102899.59;10561696;28;20070;-80
2023/04/04 04:17:28;;;;;;;0.20;0.15;;;;;;;-0.59;100.00;102886.19;10539284;28;20036;-80
2023/04/04 04:22:35;;;;;;;0.70;0.57;;;;;;;-0.73;100.00;102877.16;10527131;28;20066;-80
2023/04/04 04:27:37;;;;;;;0.10;0.10;;;;;;;-0.71;100.00;102870.63;10542615;28;20046;-81
2023/04/04 04:32:39;;;;;;;0.10;0.10;;;;;;;-0.58;100.00;102857.63;10530567;28;20069;-81
2023/04/04 04:37:42;;;;;;;0.10;0.10;;;;;;;-0.73;100.00;102857.84;10506991;28;20050;-81
2023/04/04 04:42:45;;;;;;;0.32;0.30;;;;;;;-0.50;100.00;102861.81;10530566;28;20116;-80
2023/04/04 04:47:51;;;;;;;0.00;0.00;;;;;;;-0.75;100.00;102844.09;10505144;28;20036;-80
2023/04/04 04:52:54;;;;;;;0.10;0.10;;;;;;;-0.40;100.00;102834.16;10530452;28;20097;-80
2023/04/04 04:57:56;;;;;;;0.00;0.00;;;;;;;-0.26;100.00;102847.34;10520128;28;20040;-81
2023/04/04 05:03:00;;;;;;;0.00;0.00;;;;;;;-0.24;100.00;102855.97;10535958;28;20036;-80
2023/04/04 05:08:10;;;;;;;0.00;0.00;;;;;;;-0.93;100.00;102862.47;10516740;28;20044;-80
2023/04/04 05:13:19;;;;;;;0.10;0.10;;;;;;;-0.82;100.00;102854.34;10517864;28;20043;-81
2023/04/04 05:18:22;;;;;;;0.10;0.10;;;;;;;-0.74;100.00;102868.69;10556923;27;20394;-80
2023/04/04 05:23:25;;;;;;;0.60;0.60;;;;;;;-0.77;100.00;102881.00;10532892;28;20055;-80
2023/04/04 05:28:27;;;;;;;0.00;0.00;;;;;;;-1.05;100.00;102873.09;10546267;28;20044;-81
2023/04/04 05:33:32;;;;;;;0.00;0.00;;;;;;;-0.62;100.00;102870.69;10515457;28;20040;-80
2023/04/04 05:38:53;;;;;;;0.00;0.00;;;;;;;-0.77;100.00;102873.41;10519000;28;20509;-80
2023/04/04 05:43:59;;;;;;;0.68;0.68;;;;;;;-0.79;100.00;102867.31;10510819;28;20048;-81
2023/04/04 05:49:01;;;;;;;0.30;0.30;;;;;;;-0.78;100.00;102878.34;10521037;28;20549;-81
2023/04/04 05:54:06;;;;;;;0.35;0.35;;;;;;;-0.04;100.00;102881.66;10516960;28;20047;-81
2023/04/04 05:59:08;;;;;;;1.75;1.05;;;;;;;0.12;100.00;102900.97;10516368;28;20062;-81
2023/04/04 06:04:24;;;;;;;0.28;0.28;;;;;;;0.52;100.00;102916.75;10502757;28;20036;-81
2023/04/04 06:09:29;;;;;;;0.32;0.25;;;;;;;1.01;100.00;102925.72;10571546;28;20130;-80
2023/04/04 06:14:37;;;;;;;0.20;0.20;;;;;;;1.26;100.00;102945.13;10508866;28;20127;-79
2023/04/04 06:19:41;;;;;;;0.10;0.10;;;;;;;1.87;100.00;102936.47;10516816;28;20044;-81
2023/04/04 06:24:42;;;;;;;0.50;0.50;;;;;;;1.77;100.00;102951.59;10544302;28;20052;-81
2023/04/04 06:29:45;;;;;;;0.00;0.00;;;;;;;2.09;100.00;102952.81;10539046;28;20056;-81
2023/04/04 06:34:52;;;;;;;1.33;0.80;;;;;;;2.29;100.00;102967.41;10528844;28;20044;-81
2023/04/04 06:40:07;;;;;;;0.00;0.00;;;;;;;2.21;100.00;102974.34;10517773;28;20044;-82
2023/04/04 06:45:09;;;;;;;0.13;0.13;;;;;;;2.65;100.00;102979.19;10508417;28;20416;-83
2023/04/04 06:50:11;;;;;;;3.03;0.47;;;;;;;3.15;100.00;102989.63;10522905;28;20044;-83
2023/04/04 06:55:13;;;;;;;0.75;0.30;;;;;;;3.47;100.00;102997.59;10518947;28;20047;-84
2023/04/04 07:00:15;;;;;;;0.10;0.10;;;;;;;4.76;100.00;102993.22;10513700;28;20036;-85
2023/04/04 07:05:17;;;;;;;0.30;0.30;;;;;;;4.46;100.00;103010.31;10515836;28;20063;-85
2023/04/04 07:10:20;;;;;;;0.85;0.30;;;;;;;4.19;100.00;103001.19;10568413;27;20035;-84
2023/04/04 07:15:22;;;;;;;0.10;0.10;;;;;;;4.03;100.00;103007.53;10523739;28;20415;-84
2023/04/04 07:20:27;;;;;;;0.20;0.20;;;;;;;4.63;100.00;103010.81;10525944;28;20040;-86
2023/04/04 07:25:29;;;;;;;0.22;0.22;;;;;;;4.81;100.00;103003.81;10508936;28;20047;-86
2023/04/04 07:30:32;;;;;;;0.03;0.03;;;;;;;6.25;100.00;103003.41;10516184;28;20045;-86
2023/04/04 07:35:34;;;;;;;0.05;0.05;;;;;;;5.78;100.00;103005.66;10502102;28;20052;-86
2023/04/04 07:40:36;;;;;;;0.22;0.22;;;;;;;7.27;100.00;102995.63;10523611;28;20086;-86
2023/04/04 07:45:38;;;;;;;0.10;0.10;;;;;;;6.58;100.00;103003.31;10500956;28;20049;-87
2023/04/04 07:50:40;;;;;;;0.03;0.03;;;;;;;6.87;100.00;102992.72;10525414;28;20044;-87
2023/04/04 07:55:42;;;;;;;0.03;0.03;;;;;;;6.87;100.00;102996.94;10526401;28;20048;-87
2023/04/04 08:00:44;;;;;;;0.85;0.35;;;;;;;7.65;100.00;102993.16;10507947;28;20055;-87
2023/04/04 08:05:46;;;;;;;0.22;0.20;;;;;;;7.94;100.00;102997.81;10516377;28;20040;-85
2023/04/04 08:10:50;;;;;;;0.00;0.00;;;;;;;9.30;100.00;102993.22;10497423;28;20046;-86
2023/04/04 08:15:52;;;;;;;0.00;0.00;;;;;;;8.79;99.84;103006.22;10513802;28;20052;-87
2023/04/04 08:20:54;;;;;;;0.08;0.08;;;;;;;10.39;100.00;102988.84;10538977;28;20040;-86
2023/04/04 08:25:58;;;;;;;0.10;0.10;;;;;;;9.62;97.62;102986.69;10508484;28;20048;-87
2023/04/04 08:31:00;;;;;;;0.00;0.00;;;;;;;10.29;100.00;102982.22;10524821;28;20047;-86
2023/04/04 08:36:03;;;;;;;0.40;0.28;;;;;;;10.01;94.21;102984.81;10522502;28;20048;-85
2023/04/04 08:41:05;;;;;;;0.38;0.38;;;;;;;10.11;92.42;102982.00;10564801;28;20109;-85
2023/04/04 08:46:08;;;;;;;0.43;0.20;;;;;;;10.74;90.95;102982.34;10525082;28;20039;-85
2023/04/04 08:51:13;;;;;;;0.00;0.00;;;;;;;10.68;84.38;102981.06;10526031;28;20044;-85
2023/04/04 08:56:14;;;;;;;0.35;0.35;;;;;;;10.60;84.77;102978.06;10523891;28;20486;-85
2023/04/04 09:01:17;;;;;;;0.20;0.10;;;;;;;11.27;81.41;102969.84;10527508;28;20046;-86
2023/04/04 09:06:19;;;;;;;0.03;0.03;;;;;;;9.04;84.56;102982.13;10509469;28;20040;-85
2023/04/04 09:11:22;;;;;;;0.60;0.30;;;;;;;8.53;87.12;102971.94;10531496;28;20032;-85
2023/04/04 09:16:26;;;;;;;0.55;0.55;;;;;;;10.87;88.84;102962.41;10534960;28;20388;-87
2023/04/04 09:21:32;;;;;;;0.22;0.10;;;;;;;12.01;77.81;102960.09;10515998;28;22421;-84
2023/04/04 09:26:51;;;;;;;0.30;0.30;;;;;;;12.14;75.78;102944.41;10495963;28;20385;-84
2023/04/04 09:31:54;;;;;;;1.75;0.65;;;;;;;9.07;77.66;102961.75;10491246;28;20112;-87
2023/04/04 09:36:57;;;;;;;0.47;0.43;;;;;;;8.46;83.61;102969.69;10524591;28;20071;-87
2023/04/04 09:42:00;;;;;;;1.13;0.40;;;;;;;11.54;79.98;102951.53;10491004;28;20040;-86
2023/04/04 09:47:26;;;;;;;0.52;0.28;;;;;;;9.60;81.94;102967.66;10516777;28;20548;-82
2023/04/04 09:52:40;;;;;;;0.00;0.00;;;;;;;10.24;76.38;102959.56;10506023;28;20052;-82
2023/04/04 09:57:42;;;;;;;0.10;0.10;;;;;;;8.93;78.25;102966.00;10559597;28;20079;-82
2023/04/04 10:02:48;;;;;;;0.55;0.32;;;;;;;9.15;77.53;102960.56;10509120;28;20055;-83
2023/04/04 10:07:50;;;;;;;0.00;0.00;;;;;;;11.59;75.88;102952.66;10500754;28;20044;-84
2023/04/04 10:12:52;;;;;;;0.25;0.10;;;;;;;11.18;73.84;102953.84;10501261;28;20511;-83
2023/04/04 10:17:54;;;;;;;0.47;0.40;;;;;;;12.72;72.57;102934.38;10507488;28;20040;-83
2023/04/04 10:22:57;;;;;;;0.00;0.00;;;;;;;11.31;69.23;102937.38;10523420;28;20487;-83
2023/04/04 10:27:58;;;;;;;0.10;0.10;;;;;;;8.65;83.87;102938.47;10508752;28;20483;-87
2023/04/04 10:33:05;;;;;;;0.57;0.30;;;;;;;11.81;76.20;102928.91;10518457;28;20032;-85
2023/04/04 10:38:07;;;;;;;2.75;0.38;;;;;;;9.95;77.20;102933.81;10517651;28;20047;-84
2023/04/04 10:43:11;;;;;;;0.00;0.00;;;;;;;9.84;78.67;102932.25;10523828;28;20050;-84
2023/04/04 10:48:13;;;;;;;0.20;0.00;;;;;;;10.16;77.83;102931.63;10505349;28;20517;-88
2023/04/04 10:53:15;;;;;;;0.00;0.00;;;;;;;10.04;76.20;102923.19;10540436;28;20462;-86
2023/04/04 10:58:17;;;;;;;0.22;0.10;;;;;;;11.25;75.38;102914.69;10507259;28;20041;-88
2023/04/04 11:03:19;;;;;;;1.00;0.75;;;;;;;11.41;72.50;102907.00;10523346;28;20075;-87
2023/04/04 11:08:23;;;;;;;0.32;0.30;;;;;;;11.81;70.30;102902.16;10527619;28;20044;-89
2023/04/04 11:13:30;;;;;;;3.92;0.35;;;;;;;10.40;80.11;102890.13;10554532;28;20040;-86
2023/04/04 11:18:42;;;;;;;0.90;0.38;;;;;;;11.07;70.22;102886.19;10510938;28;20048;-86
2023/04/04 11:23:50;;;;;;;0.82;0.40;;;;;;;11.71;66.19;102888.78;10530466;28;20044;-85
2023/04/04 11:28:55;;;;;;;0.00;0.00;;;;;;;13.44;63.68;102867.13;10552912;27;20105;-87
2023/04/04 11:34:14;;;;;;;0.00;0.00;;;;;;;11.81;70.58;102889.25;10536355;28;20047;-85
2023/04/04 11:39:24;;;;;;;1.35;0.60;;;;;;;10.74;73.56;102876.63;10515220;28;20040;-87
2023/04/04 11:44:29;;;;;;;3.20;0.38;;;;;;;11.19;72.10;102876.53;10536068;28;20075;-86
2023/04/04 11:49:42;;;;;;;0.32;0.30;;;;;;;13.04;59.62;102853.16;10518818;28;20040;-87
2023/04/04 11:54:45;;;;;;;0.22;0.08;;;;;;;13.67;68.38;102843.94;10505426;28;20102;-86
2023/04/04 11:59:49;;;;;;;0.10;0.10;;;;;;;12.44;64.42;102842.53;10545060;28;20036;-91
2023/04/04 12:04:52;;;;;;;4.05;0.28;;;;;;;11.47;72.99;102846.19;10522020;28;20525;-86
2023/04/04 12:09:54;;;;;;;1.98;0.47;;;;;;;12.70;63.07;102834.34;10511750;28;20044;-88
2023/04/04 12:14:58;;;;;;;0.10;0.10;;;;;;;11.81;60.92;102832.44;10519469;28;20036;-89
2023/04/04 12:20:15;;;;;;;0.85;0.28;;;;;;;12.74;60.63;102821.56;10516275;28;20143;-86
2023/04/04 12:25:23;;;;;;;1.15;0.20;;;;;;;12.83;55.90;102820.28;10549863;28;20040;-89
2023/04/04 12:30:25;;;;;;;0.00;0.00;;;;;;;11.70;58.84;102818.97;10517491;28;20040;-89
2023/04/04 12:35:27;;;;;;;0.17;0.17;;;;;;;11.75;62.13;102814.97;10529088;28;20047;-89
2023/04/04 12:40:35;;;;;;;0.15;0.13;;;;;;;11.41;57.95;102824.41;10548246;28;20047;-89
2023/04/04 12:45:38;;;;;;;0.08;0.00;;;;;;;12.58;58.25;102807.91;10560704;28;20117;-89
2023/04/04 12:50:49;;;;;;;0.63;0.43;;;;;;;12.57;56.42;102790.59;10497925;28;20198;-90
2023/04/04 12:55:52;;;;;;;0.10;0.10;;;;;;;12.00;57.21;102791.31;10547883;28;20165;-85
2023/04/04 13:00:57;;;;;;;0.45;0.20;;;;;;;12.20;56.58;102786.22;10518723;28;20117;-87
2023/04/04 13:05:59;;;;;;;0.10;0.10;;;;;;;13.29;55.75;102774.06;10521175;28;20105;-87
2023/04/04 13:11:04;;;;;;;0.80;0.43;;;;;;;13.84;52.73;102754.00;10516573;28;20036;-86
2023/04/04 13:16:11;;;;;;;0.85;0.32;;;;;;;12.33;53.83;102755.00;10530370;28;20407;-87
2023/04/04 13:21:12;;;;;;;0.10;0.10;;;;;;;13.25;59.68;102744.56;10524929;28;20044;-86
2023/04/04 13:26:14;;;;;;;0.00;0.00;;;;;;;13.05;56.24;102747.97;10521024;28;20044;-84
2023/04/04 13:31:16;;;;;;;0.52;0.30;;;;;;;12.88;61.02;102737.72;10527485;28;20486;-87
2023/04/04 13:36:18;;;;;;;0.05;0.05;;;;;;;13.77;59.68;102721.78;10524202;28;20047;-87
2023/04/04 13:41:19;;;;;;;0.57;0.28;;;;;;;10.79;57.26;102728.22;10531509;28;20093;-88
2023/04/04 13:46:21;;;;;;;0.00;0.00;;;;;;;11.58;61.14;102715.97;10549654;28;20074;-87
2023/04/04 13:51:23;;;;;;;0.00;0.00;;;;;;;11.16;53.46;102712.94;10546420;28;20051;-88
2023/04/04 13:56:25;;;;;;;0.10;0.00;;;;;;;12.77;50.92;102705.34;10566718;28;20035;-87
2023/04/04 14:01:27;;;;;;;0.17;0.10;;;;;;;10.99;57.67;102701.75;10533875;28;20036;-86
2023/04/04 14:06:30;;;;;;;0.35;0.35;;;;;;;12.21;56.04;102694.97;10523706;28;20047;-88
2023/04/04 14:11:33;;;;;;;0.05;0.00;;;;;;;10.43;54.17;102699.63;10534759;28;20450;-88
2023/04/04 14:16:34;;;;;;;0.00;0.00;;;;;;;10.96;57.67;102689.56;10519160;28;20054;-88
2023/04/04 14:21:36;;;;;;;0.32;0.30;;;;;;;11.31;57.64;102685.38;10515214;28;20136;-88
2023/04/04 14:26:38;;;;;;;0.05;0.05;;;;;;;11.02;57.19;102692.47;10514874;28;20404;-86
2023/04/04 14:31:42;;;;;;;7.47;0.10;;;;;;;10.78;56.16;102687.78;10520019;28;20538;-86
2023/04/04 14:36:44;;;;;;;0.08;0.08;;;;;;;12.14;49.09;102674.81;10534710;28;20048;-87
2023/04/04 14:41:46;;;;;;;0.00;0.00;;;;;;;12.53;45.52;102664.59;10530495;28;20119;-88
2023/04/04 14:46:51;;;;;;;0.38;0.20;;;;;;;12.91;47.06;102652.53;10542339;28;20043;-88
2023/04/04 14:51:52;;;;;;;0.00;0.00;;;;;;;11.69;48.70;102660.59;10521935;28;20582;-84
2023/04/04 14:56:55;;;;;;;0.60;0.60;;;;;;;11.93;50.13;102646.22;10510894;28;20044;-84
2023/04/04 15:01:56;;;;;;;0.45;0.32;;;;;;;11.46;51.64;102637.91;10517953;28;20041;-84
2023/04/04 15:07:01;;;;;;;0.55;0.28;;;;;;;11.01;48.45;102645.97;10534987;28;20048;-84
2023/04/04 15:12:03;;;;;;;2.92;1.92;;;;;;;11.82;46.74;102633.69;10510487;28;20055;-84
2023/04/04 15:17:05;;;;;;;0.22;0.22;;;;;;;12.69;45.82;102633.47;10534324;28;20479;-85
2023/04/04 15:22:07;;;;;;;0.00;0.00;;;;;;;12.41;44.90;102625.25;10521098;28;20040;-85
2023/04/04 15:27:09;;;;;;;0.05;0.05;;;;;;;11.50;51.28;102626.94;10515840;28;20418;-83
2023/04/04 15:32:11;;;;;;;0.00;0.00;;;;;;;11.37;47.01;102625.44;10531363;28;20484;-83
2023/04/04 15:37:13;;;;;;;0.00;0.00;;;;;;;11.58;49.35;102617.88;10519900;28;20097;-85
2023/04/04 15:42:15;;;;;;;0.10;0.10;;;;;;;11.11;47.83;102623.31;10535210;28;20044;-83
2023/04/04 15:47:17;;;;;;;0.15;0.15;;;;;;;11.49;47.10;102614.84;10513831;28;20040;-84
2023/04/04 15:52:19;;;;;;;0.00;0.00;;;;;;;10.99;56.63;102617.50;10531017;28;20036;-83
2023/04/04 15:57:21;;;;;;;0.00;0.00;;;;;;;11.04;49.44;102604.84;10518632;28;20066;-84
2023/04/04 16:02:31;;;;;;;0.10;0.10;;;;;;;10.75;46.76;102604.22;10500897;28;20051;-83
2023/04/04 16:07:32;;;;;;;0.05;0.05;;;;;;;10.68;45.42;102603.03;10513551;28;20507;-84
2023/04/04 16:12:34;;;;;;;0.00;0.00;;;;;;;10.90;45.05;102596.44;10520388;28;20108;-83
2023/04/04 16:17:36;;;;;;;0.00;0.00;;;;;;;10.62;42.14;102598.44;10488482;28;20404;-83
2023/04/04 16:22:38;;;;;;;0.00;0.00;;;;;;;10.98;44.82;102589.06;10525737;28;20101;-83
2023/04/04 16:27:40;;;;;;;0.00;0.00;;;;;;;11.28;47.80;102584.59;10548769;28;20525;-83
2023/04/04 16:32:41;;;;;;;0.65;0.32;;;;;;;10.16;44.73;102589.06;10522064;28;20419;-83
2023/04/04 16:37:43;;;;;;;0.10;0.10;;;;;;;10.50;48.97;102584.88;10514518;28;20063;-82
2023/04/04 16:42:45;;;;;;;0.10;0.10;;;;;;;10.83;47.56;102573.72;10517691;28;20044;-84
2023/04/04 16:47:46;;;;;;;0.93;0.38;;;;;;;10.74;48.23;102587.88;10552937;28;20119;-83
2023/04/04 16:52:48;;;;;;;0.45;0.25;;;;;;;10.75;50.85;102581.94;10528818;28;20074;-83
2023/04/04 16:57:50;;;;;;;0.00;0.00;;;;;;;10.23;48.92;102584.28;10538781;28;20107;-83
2023/04/04 17:02:52;;;;;;;0.10;0.10;;;;;;;10.04;47.67;102582.38;10511147;28;20099;-83
2023/04/04 17:07:53;;;;;;;0.45;0.30;;;;;;;10.04;47.17;102584.97;10520937;28;20135;-83
2023/04/04 17:12:55;;;;;;;0.52;0.30;;;;;;;9.87;51.60;102579.75;10535996;28;20054;-83
2023/04/04 17:17:57;;;;;;;0.20;0.20;;;;;;;9.81;55.70;102574.28;10501305;28;20498;-83
2023/04/04 17:22:59;;;;;;;0.17;0.17;;;;;;;9.53;58.27;102568.44;10497596;28;20028;-82
2023/04/04 17:28:03;;;;;;;1.23;0.25;;;;;;;9.62;56.34;102572.34;10499834;28;20044;-83
2023/04/04 17:33:04;;;;;;;0.10;0.10;;;;;;;9.53;60.13;102563.31;10525338;28;20483;-83
2023/04/04 17:38:06;;;;;;;0.10;0.10;;;;;;;9.68;62.05;102557.25;10516327;28;20155;-83
2023/04/04 17:43:08;;;;;;;0.30;0.30;;;;;;;9.36;63.61;102561.44;10508614;28;20135;-83
2023/04/04 17:48:11;;;;;;;0.03;0.03;;;;;;;9.08;65.60;102552.13;10515572;28;20047;-83
2023/04/04 17:53:12;;;;;;;0.10;0.00;;;;;;;9.27;65.75;102548.94;10471372;28;20049;-83
2023/04/04 17:58:14;;;;;;;0.57;0.40;;;;;;;8.93;66.16;102546.09;10486439;28;20049;-83
2023/04/04 18:03:18;;;;;;;0.00;0.00;;;;;;;8.88;64.25;102549.28;10492851;28;20051;-83
2023/04/04 18:08:21;;;;;;;0.30;0.10;;;;;;;8.74;69.08;102545.00;10504105;28;20131;-83
2023/04/04 18:13:23;;;;;;;0.22;0.20;;;;;;;8.73;68.53;102543.22;10533372;28;20055;-83
2023/04/04 18:18:24;;;;;;;0.13;0.10;;;;;;;8.68;68.96;102539.47;10531085;28;20055;-83
2023/04/04 18:23:26;;;;;;;0.10;0.10;;;;;;;8.50;68.21;102555.56;10529917;28;20044;-83
2023/04/04 18:28:28;;;;;;;0.10;0.10;;;;;;;8.45;69.33;102551.78;10536325;28;20419;-83
2023/04/04 18:33:30;;;;;;;0.22;0.22;;;;;;;8.48;70.20;102552.00;10506129;28;20045;-83
2023/04/04 18:38:32;;;;;;;0.03;0.03;;;;;;;8.38;69.60;102559.91;10495638;28;20407;-83
2023/04/04 18:43:34;;;;;;;0.10;0.10;;;;;;;8.34;67.54;102563.09;10516951;28;20093;-83
2023/04/04 18:48:36;;;;;;;0.43;0.28;;;;;;;8.56;69.33;102566.22;10514825;28;20052;-83
2023/04/04 18:53:37;;;;;;;0.30;0.30;;;;;;;8.46;67.17;102574.09;10513399;28;20056;-83
2023/04/04 18:58:40;;;;;;;0.00;0.00;;;;;;;8.59;72.32;102575.78;10545047;28;20408;-83
2023/04/04 19:03:45;;;;;;;0.88;0.73;;;;;;;8.24;72.75;102579.63;10521795;28;20040;-83
2023/04/04 19:08:47;;;;;;;0.80;0.75;;;;;;;8.23;77.66;102576.13;10522155;28;20173;-84
2023/04/04 19:13:50;;;;;;;0.17;0.17;;;;;;;8.14;78.90;102580.72;10546682;28;20477;-83
2023/04/04 19:18:51;;;;;;;0.25;0.13;;;;;;;8.02;78.00;102579.94;10521156;28;20079;-84
2023/04/04 19:23:53;;;;;;;0.15;0.15;;;;;;;8.03;76.13;102581.72;10516966;28;20075;-84
2023/04/04 19:28:55;;;;;;;0.00;0.00;;;;;;;7.85;86.95;102579.78;10538865;28;20414;-83
2023/04/04 19:33:56;;;;;;;0.00;0.00;;;;;;;7.49;82.77;102581.69;10528746;28;20039;-83
2023/04/04 19:38:58;;;;;;;2.58;0.22;;;;;;;7.26;93.91;102578.50;10512141;28;20461;-83
2023/04/04 19:44:00;;;;;;;0.55;0.35;;;;;;;7.32;93.10;102577.16;10525364;28;20040;-84
2023/04/04 19:49:11;;;;;;;0.00;0.00;;;;;;;7.78;89.94;102578.47;10488400;28;20063;-84
2023/04/04 19:54:16;;;;;;;0.03;0.03;;;;;;;7.61;86.43;102573.91;10521682;28;20556;-84
2023/04/04 19:59:46;;;;;;;0.00;0.00;;;;;;;7.52;93.06;102570.78;10526885;28;20543;-84
2023/04/04 20:04:47;;;;;;;0.00;0.00;;;;;;;7.51;91.78;102569.88;10556011;28;20451;-83
2023/04/04 20:09:53;;;;;;;0.00;0.00;;;;;;;7.13;95.75;102573.34;10557257;28;20048;-84
2023/04/04 20:14:58;;;;;;;0.00;0.00;;;;;;;7.09;99.72;102576.50;10522802;28;20059;-84
2023/04/04 20:20:00;;;;;;;0.00;0.00;;;;;;;7.03;100.00;102578.66;10520788;28;20395;-83
2023/04/04 20:25:09;;;;;;;0.28;0.20;;;;;;;6.59;100.00;102593.66;10538458;28;20044;-83
2023/04/04 20:30:11;;;;;;;0.00;0.00;;;;;;;6.22;100.00;102593.63;10519161;28;20491;-83
2023/04/04 20:35:26;;;;;;;0.10;0.10;;;;;;;5.81;100.00;102578.75;10505242;28;20040;-83
2023/04/04 20:40:37;;;;;;;0.25;0.20;;;;;;;5.93;100.00;102587.28;10530845;28;20070;-83
2023/04/04 20:45:45;;;;;;;0.00;0.00;;;;;;;5.70;100.00;102570.28;10511092;28;20055;-83
2023/04/04 20:50:47;;;;;;;0.52;0.35;;;;;;;6.05;100.00;102573.66;10508453;28;20048;-83
2023/04/04 20:55:49;;;;;;;0.20;0.20;;;;;;;6.40;100.00;102572.66;10517654;28;20050;-83
2023/04/04 21:00:51;;;;;;;0.17;0.17;;;;;;;6.71;93.82;102568.00;10513575;28;20116;-83
2023/04/04 21:06:01;;;;;;;0.00;0.00;;;;;;;6.24;98.99;102566.47;10533951;28;20395;-84
2023/04/04 21:11:03;;;;;;;0.45;0.20;;;;;;;6.39;97.74;102565.78;10530193;28;20635;-83
2023/04/04 21:16:10;;;;;;;0.20;0.13;;;;;;;5.47;100.00;102569.50;10530402;28;20043;-84
2023/04/04 21:21:20;;;;;;;0.03;0.03;;;;;;;5.71;100.00;102567.84;10543275;28;20067;-84
2023/04/04 21:26:31;;;;;;;0.10;0.10;;;;;;;5.34;100.00;102570.25;10512125;28;20133;-83
2023/04/04 21:31:39;;;;;;;0.00;0.00;;;;;;;4.33;100.00;102568.53;10485673;28;20301;-83
2023/04/04 21:36:43;;;;;;;0.03;0.03;;;;;;;4.59;100.00;102557.81;10514048;28;20048;-83
2023/04/04 21:41:45;;;;;;;0.80;0.50;;;;;;;4.83;100.00;102551.16;10525245;28;20036;-83
2023/04/04 21:46:47;;;;;;;0.00;0.00;;;;;;;4.17;100.00;102540.94;10535518;28;20126;-83
2023/04/04 21:51:49;;;;;;;0.10;0.10;;;;;;;3.86;100.00;102538.53;10508639;28;20110;-83
2023/04/04 21:56:51;;;;;;;0.00;0.00;;;;;;;3.65;100.00;102536.94;10541265;28;20511;-83
2023/04/04 22:01:52;;;;;;;0.00;0.00;;;;;;;3.46;100.00;102537.09;10510869;28;20040;-83
2023/04/04 22:06:54;;;;;;;0.00;0.00;;;;;;;3.58;100.00;102526.13;10555853;28;20044;-83
2023/04/04 22:11:57;;;;;;;0.00;0.00;;;;;;;3.80;100.00;102542.38;10524067;28;20044;-83
2023/04/04 22:17:01;;;;;;;0.15;0.08;;;;;;;3.83;100.00;102548.50;10510053;28;20040;-83
2023/04/04 22:22:04;;;;;;;0.00;0.00;;;;;;;3.58;100.00;102531.22;10515641;28;20495;-83
2023/04/04 22:27:06;;;;;;;0.65;0.65;;;;;;;3.49;100.00;102524.63;10515552;28;20052;-83
2023/04/04 22:32:07;;;;;;;0.00;0.00;;;;;;;3.45;100.00;102525.16;10507695;28;20044;-83
2023/04/04 22:37:09;;;;;;;0.00;0.00;;;;;;;3.48;100.00;102525.38;10537887;28;20403;-83
2023/04/04 22:42:14;;;;;;;0.20;0.20;;;;;;;3.34;100.00;102525.91;10523117;28;20079;-83
2023/04/04 22:47:15;;;;;;;0.10;0.10;;;;;;;3.34;100.00;102541.22;10501063;28;20052;-82
2023/04/04 22:52:21;;;;;;;0.00;0.00;;;;;;;3.21;100.00;102538.44;10523138;28;20136;-82
2023/04/04 22:57:23;;;;;;;0.03;0.03;;;;;;;3.51;100.00;102534.94;10532673;28;20063;-82
2023/04/04 23:02:24;;;;;;;0.00;0.00;;;;;;;3.39;100.00;102542.47;10513085;28;20050;-82
2023/04/04 23:07:26;;;;;;;0.05;0.05;;;;;;;3.30;100.00;102529.88;10539881;28;20478;-83
2023/04/04 23:12:28;;;;;;;0.10;0.10;;;;;;;2.75;100.00;102525.31;10516133;28;20470;-82
2023/04/04 23:17:30;;;;;;;0.05;0.05;;;;;;;2.74;100.00;102498.97;10503699;28;20154;-82
2023/04/04 23:22:33;;;;;;;0.00;0.00;;;;;;;3.06;100.00;102508.38;10510171;28;20044;-82